Hlavní strana
METAR-TAF:

METAR-TAF

Letiště :

Pärnu, Estonsko

zeměpisná šířka: 58-25-09N, zeměpisná délka: 024-28-22E, výška: 14 m

Aktuální stav počasí

Zpráva byla vytvořena před 10 hodinami a 22 minutami, v 13:50 UTC
Jižní vítr 7 kt, proměnlivý mezi jihojihovýchodním a jihozápadním
Teplota 3°C
Vlhkost vzduchu 100%
Tlak 1016 hPa
Viditelnost: 3600 m
Oblačno až skoro zataženo ve výšce 500 ft
Zataženo ve výšce 800 ft
slabý déšť, kouřmo

METAR: EEPU 211350Z 19007KT 150V230 3600 -RA BR BKN005 OVC008 03/03 Q1016

Čas: 02:12 (00:12 UTC)


TAF: chybějící

Stav a předpovědi počasí z více než 4 000 letišť (zprávy METAR a TAF).

Červené a žluté tečky na mapě představují dostupné meteorologické stanice.

Když kurzor umístíte na tečku, zobrazí se název stanice.

Pak kliknutím zobrazíte stav a předpověď počasí.

Chcete-li změnit mapu, kliknutím na zelené tlačítko se znaménkem +mapu přiblížíte, kliknutím na zelené tlačítko se znaménkem – mapu oddálíte a kliknutím na zelené šipky přejdete na sousední mapy.


METAR-TAF: